Terminal Aerodrome Forecast
Issued by NWS

Home | Current Version | Previous Version | Text Only | Print | Product List | Glossary On
Versions: 1 2 3 4 5 6 7 8 9 10 11 12
525
FTUS42 TJSJ 091725
TAFISX
TAF
TISX 091725Z 0918/1018 11011KT P6SM FEW022
     FM092300 VRB06KT P6SM VCSH SCT025 SCT040
     FM101300 11012KT P6SM SCT021 SCT050=

USA.gov is the U.S. government's official web portal to all federal, state and local government web resources and services.